Sault Sainte Marie, MI

5:13 AM EDT on May 30, 2015 (GMT -0400)
Drummond Island | | Change Station
CLOSE
Current Station
Airport
Location: Drummond Island,
Elevation: 669 ft
Nearby Weather Stations

Elev 669 ft 46.01 °N, 83.74 °W | Updated 19 minutes ago

Rain
Rain
56 °F
Feels Like 56 °F
N
8
Wind Variable Wind from WNW

Today
High -- | Low -- °F
--% Chance of Precip.
Yesterday
High -- | Low -- °F
Precip. -- in
5:49 AM 9:20 PM
Waxing Gibbous, 89% visible
Pressure 29.85 in
Visibility 10.0 miles
Clouds Mostly Cloudy 200 ft
Mostly Cloudy 900 ft
Overcast 11000 ft
Dew Point 55 °F
Humidity 99%
Rainfall 0.00 in
Snow Depth Not available.
UV 0 out of 12
Pollen 7.30 out of 12
Air Quality Not available.
Flu Activity Sporadic
METAR KDRM 300854Z AUTO 29007KT 250V320 10SM BKN002 BKN009 OVC110 13/13 A2985 RMK AO2 T01310130

More Conditions Fewer Conditions

Pressure 29.85 in
Visibility 10.0 miles
Clouds Mostly Cloudy 200 ft
Mostly Cloudy 900 ft
Overcast 11000 ft
Dew Point 55 °F
Humidity 99%
Rainfall 0.00 in
Snow Depth Not available.
UV 0 out of 12
Pollen 7.30 out of 12
Air Quality Not available.
Flu Activity Sporadic
METAR KDRM 300854Z AUTO 29007KT 250V320 10SM BKN002 BKN009 OVC110 13/13 A2985 RMK AO2 T01310130

More Conditions Fewer Conditions

Nowcast | as of 5:00 am EDT on May 30, 2015

At 6 am...patchy fog. Showers. Temperature 51. Northwest winds 10 mph. At 8 am...cloudy. Temperature 50. Northwest winds 11 mph. At 10 am...mostly cloudy. Temperature 54. Northwest winds 13 mph. At 12 PM...mostly cloudy. Temperature 56. Northwest winds 14 mph.

×

10-Day Weather Forecast

Almanac

Astronomy

May. 30, 2015 Rise Set
Actual Time
Civil Twilight
Nautical Twilight
Astronomical Twilight
Moon
Length of Visible Light
Length of Day
Tomorrow will be .
, % of the Moon is Illuminated

Today's Extremes

State Highs State Lows

Community

WunderPhotos

Upload Photos

1,825,473 photos uploaded!

WunderBlogs® & News

Nearby

Air Quality

  Air Quality AQ Index Pollutant
Not available.

Snow Depth

Station Depth Elevation

Earthquake Activity

City Distance Mag. Time & Date
Minimum magnitude displayed is 2.5.

Coastal Water Temperatures

Place Temperature

Stations

Nearby Weather Stations

Station Location Temp. Windchill Dew Point Humidity Wind Precip. Elev Updated Type